createdAt,value
2023-02-11T00:02:18.835Z,96645.06
2023-02-11T00:05:07.765Z,96635.66
2023-02-11T00:07:48.742Z,96637.13
2023-02-11T00:10:35.764Z,96635.13
2023-02-11T00:13:15.762Z,96640.81
2023-02-11T00:16:02.755Z,96629.41
2023-02-11T00:18:42.762Z,96636.13
2023-02-11T00:21:32.754Z,96633.66
2023-02-11T00:24:06.863Z,96625.81
2023-02-11T00:26:53.770Z,96620.97
2023-02-11T00:29:26.873Z,96623.91
2023-02-11T00:32:15.746Z,96620.84
2023-02-11T00:34:55.754Z,96614.75
2023-02-11T00:37:42.828Z,96607.78
2023-02-11T00:40:23.773Z,96598.88
2023-02-11T00:43:17.756Z,96598.72
2023-02-11T00:46:04.768Z,96594.53
2023-02-11T00:48:37.847Z,96600.94
2023-02-11T00:51:24.759Z,96603.91
2023-02-11T00:54:04.761Z,96605.13
2023-02-11T00:56:58.766Z,96604.38
2023-02-11T00:59:45.773Z,96589.91
2023-02-11T01:02:25.752Z,96588.44
2023-02-11T01:05:19.816Z,96590.78
2023-02-11T01:08:06.713Z,96589.91
2023-02-11T01:10:39.866Z,96583.22
2023-02-11T01:13:26.778Z,96585.72
2023-02-11T01:16:00.948Z,96595.31
2023-02-11T01:18:49.761Z,96584.47
2023-02-11T01:21:22.861Z,96574.19
2023-02-11T01:24:09.788Z,96565.69
2023-02-11T01:26:49.774Z,96561.50
2023-02-11T01:29:36.790Z,96560.44
2023-02-11T01:32:16.806Z,96549.00
2023-02-11T01:35:03.776Z,96539.09
2023-02-11T01:37:46.777Z,96541.94
2023-02-11T01:40:40.780Z,96536.84
2023-02-11T01:43:34.813Z,96536.22
2023-02-11T01:46:34.834Z,96541.31
2023-02-11T01:49:24.843Z,96545.50
2023-02-11T01:52:06.789Z,96554.41
2023-02-11T01:55:16.840Z,96553.13
2023-02-11T01:58:00.792Z,96541.38
2023-02-11T02:00:48.773Z,96529.94
2023-02-11T02:03:28.909Z,96529.22
2023-02-11T02:06:34.777Z,96506.69
2023-02-11T02:09:22.936Z,96519.19
2023-02-11T02:12:09.779Z,96513.91
2023-02-11T02:14:54.832Z,96499.81
2023-02-11T02:17:52.786Z,96498.94
2023-02-11T02:21:10.789Z,96492.47
2023-02-11T02:24:22.790Z,96489.34
2023-02-11T02:27:43.799Z,96483.94
2023-02-11T02:31:01.836Z,96469.97
2023-02-11T02:34:12.829Z,96453.13
2023-02-11T02:37:22.819Z,96448.19
2023-02-11T02:40:15.783Z,96452.50
2023-02-11T02:42:50.923Z,96448.13
2023-02-11T02:45:37.796Z,96446.16
2023-02-11T02:48:10.961Z,96443.91
2023-02-11T02:51:04.797Z,96441.16
2023-02-11T02:54:03.817Z,96436.34
2023-02-11T02:57:16.798Z,96437.06
2023-02-11T03:00:21.412Z,96452.97
2023-02-11T03:03:10.808Z,96454.47
2023-02-11T03:06:08.918Z,96473.13
2023-02-11T03:09:18.796Z,96462.66
2023-02-11T03:11:51.944Z,96470.94
2023-02-11T03:14:39.801Z,96467.00
2023-02-11T03:17:14.892Z,96460.44
2023-02-11T03:20:03.866Z,96459.97
2023-02-11T03:22:41.976Z,96454.56
2023-02-11T03:25:35.842Z,96444.88
2023-02-11T03:28:08.918Z,96446.84
2023-02-11T03:31:02.962Z,96435.19
2023-02-11T03:33:50.822Z,96429.53
2023-02-11T03:36:53.814Z,96432.72
2023-02-11T03:39:33.904Z,96441.91
2023-02-11T03:42:21.802Z,96435.09
2023-02-11T03:45:04.992Z,96435.94
2023-02-11T03:47:59.811Z,96436.66
2023-02-11T03:50:43.800Z,96444.69
2023-02-11T03:53:37.814Z,96452.09
2023-02-11T03:56:36.811Z,96453.72
2023-02-11T03:59:23.825Z,96432.72
2023-02-11T04:01:59.636Z,96431.66
2023-02-11T04:04:46.787Z,96420.69
2023-02-11T04:07:26.830Z,96408.47
2023-02-11T04:10:21.833Z,96397.34
2023-02-11T04:13:08.830Z,96408.09
2023-02-11T04:15:41.928Z,96404.91
2023-02-11T04:18:28.823Z,96397.34
2023-02-11T04:21:01.928Z,96399.97
2023-02-11T04:23:48.818Z,96405.16
2023-02-11T04:26:21.930Z,96393.41
2023-02-11T04:29:08.806Z,96373.44
2023-02-11T04:31:42.019Z,96369.97
2023-02-11T04:34:28.858Z,96372.69
2023-02-11T04:37:01.920Z,96361.81
2023-02-11T04:39:48.857Z,96345.72
2023-02-11T04:42:21.915Z,96352.28
2023-02-11T04:45:08.845Z,96357.50
2023-02-11T04:47:48.825Z,96342.66
2023-02-11T04:50:36.811Z,96349.69
2023-02-11T04:53:16.843Z,96350.09
2023-02-11T04:56:10.879Z,96337.09
2023-02-11T04:58:57.862Z,96333.91
2023-02-11T05:01:37.850Z,96319.69
2023-02-11T05:04:31.901Z,96300.59
2023-02-11T05:07:18.885Z,96297.66
2023-02-11T05:09:51.940Z,96297.16
2023-02-11T05:12:38.846Z,96289.22
2023-02-11T05:15:19.824Z,96283.69
2023-02-11T05:18:13.842Z,96295.91
2023-02-11T05:21:00.828Z,96295.78
2023-02-11T05:23:34.356Z,96283.53
2023-02-11T05:26:21.876Z,96281.94
2023-02-11T05:28:54.909Z,96266.34
2023-02-11T05:31:41.864Z,96256.56
2023-02-11T05:34:14.908Z,96257.28
2023-02-11T05:37:02.874Z,96263.72
2023-02-11T05:39:35.955Z,96267.81
2023-02-11T05:42:22.836Z,96253.72
2023-02-11T05:44:55.951Z,96253.72
2023-02-11T05:47:42.808Z,96247.91
2023-02-11T05:50:22.838Z,96244.69
2023-02-11T05:53:10.822Z,96239.75
2023-02-11T05:55:45.000Z,96236.28
2023-02-11T05:58:31.895Z,96233.31
2023-02-11T06:01:05.019Z,96233.06
2023-02-11T06:03:51.901Z,96229.13
2023-02-11T06:06:25.185Z,96241.97
2023-02-11T06:09:11.850Z,96251.97
2023-02-11T06:11:51.900Z,96242.22
2023-02-11T06:14:46.871Z,96240.09
2023-02-11T06:17:40.858Z,96244.56
2023-02-11T06:20:34.910Z,96239.84
2023-02-11T06:23:30.454Z,96250.22
2023-02-11T06:26:23.866Z,96260.50
2023-02-11T06:28:56.986Z,96256.03
2023-02-11T06:31:46.040Z,96249.03
2023-02-11T06:34:18.936Z,96251.66
2023-02-11T06:37:05.869Z,96241.25
2023-02-11T06:39:38.953Z,96248.91
2023-02-11T06:42:25.885Z,96249.38
2023-02-11T06:45:05.894Z,96256.94
2023-02-11T06:47:59.862Z,96249.97
2023-02-11T06:50:46.891Z,96254.53
2023-02-11T06:53:26.857Z,96270.84
2023-02-11T06:56:19.888Z,96268.97
2023-02-11T06:58:54.849Z,96259.16
2023-02-11T07:01:41.923Z,96267.84
2023-02-11T07:04:15.482Z,96276.84
2023-02-11T07:07:01.853Z,96284.97
2023-02-11T07:09:34.974Z,96276.75
2023-02-11T07:12:21.899Z,96276.56
2023-02-11T07:15:01.882Z,96267.56
2023-02-11T07:17:48.864Z,96246.19
2023-02-11T07:20:22.004Z,96262.25
2023-02-11T07:23:08.865Z,96250.41
2023-02-11T07:25:42.967Z,96224.44
2023-02-11T07:28:29.907Z,96217.00
2023-02-11T07:31:09.951Z,96214.16
2023-02-11T07:34:05.879Z,96217.50
2023-02-11T07:36:52.859Z,96225.53
2023-02-11T07:39:27.613Z,96216.28
2023-02-11T07:42:14.886Z,96207.13
2023-02-11T07:44:54.884Z,96217.38
2023-02-11T07:47:41.864Z,96200.22
2023-02-11T07:50:22.908Z,96196.56
2023-02-11T07:53:09.949Z,96197.63
2023-02-11T07:55:43.030Z,96203.22
2023-02-11T07:58:29.857Z,96192.44
2023-02-11T08:01:08.051Z,96195.47
2023-02-11T08:03:54.870Z,96199.66
2023-02-11T08:06:29.996Z,96195.63
2023-02-11T08:09:12.881Z,96196.28
2023-02-11T08:11:52.971Z,96192.91
2023-02-11T08:14:33.879Z,96176.16
2023-02-11T08:17:13.897Z,96176.75
2023-02-11T08:19:46.971Z,96184.56
2023-02-11T08:22:33.864Z,96170.94
2023-02-11T08:25:13.857Z,96158.16
2023-02-11T08:28:07.928Z,96160.38
2023-02-11T08:30:54.920Z,96160.09
2023-02-11T08:33:28.025Z,96167.41
2023-02-11T08:36:16.889Z,96170.78
2023-02-11T08:38:51.074Z,96178.53
2023-02-11T08:41:41.896Z,96170.50
2023-02-11T08:44:15.036Z,96170.59
2023-02-11T08:47:01.869Z,96169.59
2023-02-11T08:49:41.901Z,96164.69
2023-02-11T08:52:28.914Z,96162.47
2023-02-11T08:55:08.890Z,96164.25
2023-02-11T08:58:02.918Z,96163.16
2023-02-11T09:00:56.884Z,96158.72
2023-02-11T09:03:43.885Z,96166.09
2023-02-11T09:06:19.005Z,96159.81
2023-02-11T09:09:05.935Z,96158.16
2023-02-11T09:11:43.082Z,96163.88
2023-02-11T09:14:30.918Z,96165.66
2023-02-11T09:17:04.036Z,96174.47
2023-02-11T09:19:50.902Z,96171.72
2023-02-11T09:22:23.987Z,96165.63
2023-02-11T09:25:10.974Z,96162.38
2023-02-11T09:27:44.043Z,96162.03
2023-02-11T09:30:30.997Z,96158.50
2023-02-11T09:33:04.142Z,96150.13
2023-02-11T09:35:50.905Z,96143.59
2023-02-11T09:38:24.003Z,96146.44
2023-02-11T09:41:13.892Z,96151.38
2023-02-11T09:43:55.016Z,96155.28
2023-02-11T09:46:46.913Z,96160.25
2023-02-11T09:49:36.917Z,96155.78
2023-02-11T09:52:37.928Z,96156.09
2023-02-11T09:55:31.903Z,96156.25
2023-02-11T09:58:05.313Z,96151.41
2023-02-11T10:01:09.966Z,96135.50
2023-02-11T10:03:55.957Z,96141.06
2023-02-11T10:06:50.908Z,96133.25
2023-02-11T10:09:27.130Z,96130.91
2023-02-11T10:12:19.949Z,96114.13
2023-02-11T10:15:11.911Z,96114.94
2023-02-11T10:18:27.935Z,96105.00
2023-02-11T10:21:32.929Z,96104.50
2023-02-11T10:24:28.922Z,96101.53
2023-02-11T10:27:23.924Z,96103.75
2023-02-11T10:30:03.114Z,96106.66
2023-02-11T10:33:23.915Z,96093.78
2023-02-11T10:36:04.959Z,96096.22
2023-02-11T10:38:58.927Z,96083.13
2023-02-11T10:41:59.906Z,96073.59
2023-02-11T10:45:02.924Z,96057.16
2023-02-11T10:47:57.916Z,96062.97
2023-02-11T10:50:44.937Z,96052.16
2023-02-11T10:53:27.283Z,96045.88
2023-02-11T10:56:06.947Z,96046.88
2023-02-11T10:59:00.135Z,96041.38
2023-02-11T11:02:11.002Z,96040.25
2023-02-11T11:04:51.951Z,96042.69
2023-02-11T11:07:38.949Z,96047.97
2023-02-11T11:10:52.215Z,96028.22
2023-02-11T11:13:48.917Z,96021.97
2023-02-11T11:16:38.949Z,96021.34
2023-02-11T11:19:21.930Z,96003.91
2023-02-11T11:22:15.964Z,95987.84
2023-02-11T11:25:03.936Z,95983.28
2023-02-11T11:27:37.828Z,95977.94
2023-02-11T11:30:26.025Z,95972.97
2023-02-11T11:32:59.057Z,95963.50
2023-02-11T11:35:45.964Z,95955.63
2023-02-11T11:38:28.927Z,95951.13
2023-02-11T11:41:36.956Z,95958.31
2023-02-11T11:44:41.992Z,95957.50
2023-02-11T11:47:35.989Z,95947.88
2023-02-11T11:50:27.781Z,95936.09
2023-02-11T11:53:52.953Z,95937.50
2023-02-11T11:56:39.071Z,95935.72
2023-02-11T11:59:22.955Z,95936.28
2023-02-11T12:02:42.071Z,95934.81
2023-02-11T12:05:54.931Z,95915.25
2023-02-11T12:08:47.077Z,95915.72
2023-02-11T12:11:42.951Z,95905.25
2023-02-11T12:14:30.985Z,95905.59
2023-02-11T12:17:42.950Z,95903.47
2023-02-11T12:20:44.962Z,95896.38
2023-02-11T12:24:01.953Z,95901.13
2023-02-11T12:26:55.970Z,95912.34
2023-02-11T12:29:44.051Z,95914.53
2023-02-11T12:32:50.942Z,95912.69
2023-02-11T12:36:09.054Z,95912.84
2023-02-11T12:39:13.963Z,95912.00
2023-02-11T12:42:29.967Z,95913.53
2023-02-11T12:45:28.026Z,95926.03
2023-02-11T12:48:48.961Z,95911.03
2023-02-11T12:52:07.016Z,95907.66
2023-02-11T12:55:07.015Z,95921.16
2023-02-11T12:57:44.108Z,95923.78
2023-02-11T13:00:37.992Z,95918.91
2023-02-11T13:03:25.985Z,95915.66
2023-02-11T13:06:27.980Z,95911.66
2023-02-11T13:09:24.996Z,95916.84
2023-02-11T13:12:22.034Z,95920.44
2023-02-11T13:15:14.002Z,95927.13
2023-02-11T13:18:12.035Z,95928.84
2023-02-11T13:21:43.970Z,95922.19
2023-02-11T13:24:45.981Z,95903.56
2023-02-11T13:27:25.995Z,95918.53
2023-02-11T13:30:40.011Z,95917.59
2023-02-11T13:33:38.999Z,95917.47
2023-02-11T13:36:15.112Z,95919.88
2023-02-11T13:39:08.002Z,95901.25
2023-02-11T13:41:51.585Z,95899.28
2023-02-11T13:44:47.988Z,95896.66
2023-02-11T13:47:43.997Z,95883.03
2023-02-11T13:50:39.985Z,95890.41
2023-02-11T13:53:26.998Z,95873.31
2023-02-11T13:56:13.134Z,95871.56
2023-02-11T13:59:02.032Z,95861.25
2023-02-11T14:02:14.440Z,95865.34
2023-02-11T14:05:43.998Z,95878.59
2023-02-11T14:08:42.020Z,95883.53
2023-02-11T14:11:48.022Z,95859.31
2023-02-11T14:14:40.055Z,95868.44
2023-02-11T14:17:13.159Z,95858.41
2023-02-11T14:19:59.999Z,95861.81
2023-02-11T14:22:37.085Z,95861.69
2023-02-11T14:25:33.054Z,95855.72
2023-02-11T14:28:41.057Z,95826.22
2023-02-11T14:31:41.133Z,95822.00
2023-02-11T14:34:34.010Z,95817.75
2023-02-11T14:37:21.124Z,95807.53
2023-02-11T14:40:14.008Z,95810.88
2023-02-11T14:42:48.108Z,95806.47
2023-02-11T14:45:43.014Z,95795.47
2023-02-11T14:48:46.009Z,95808.81
2023-02-11T14:51:40.037Z,95835.59
2023-02-11T14:54:40.086Z,95846.44
2023-02-11T14:57:35.017Z,95852.34
2023-02-11T15:00:35.020Z,95851.44
2023-02-11T15:03:33.028Z,95854.81
2023-02-11T15:06:12.213Z,95840.53
2023-02-11T15:09:09.000Z,95853.66
2023-02-11T15:11:49.159Z,95856.06
2023-02-11T15:14:47.007Z,95851.72
2023-02-11T15:17:32.095Z,95865.88
2023-02-11T15:20:33.014Z,95864.09
2023-02-11T15:23:18.022Z,95867.41
2023-02-11T15:26:12.027Z,95856.53
2023-02-11T15:28:59.358Z,95859.75
2023-02-11T15:31:35.286Z,95855.53
2023-02-11T15:34:22.027Z,95851.31
2023-02-11T15:36:55.175Z,95852.94
2023-02-11T15:39:50.018Z,95853.69
2023-02-11T15:42:52.578Z,95857.06
2023-02-11T15:45:51.027Z,95851.25
2023-02-11T15:49:06.068Z,95848.59
2023-02-11T15:51:54.039Z,95844.47
2023-02-11T15:54:32.602Z,95844.38
2023-02-11T15:57:19.034Z,95838.44
2023-02-11T16:00:02.025Z,95859.47
2023-02-11T16:02:53.048Z,95866.94
2023-02-11T16:05:32.230Z,95857.75
2023-02-11T16:08:32.075Z,95849.25
2023-02-11T16:11:09.212Z,95854.25
2023-02-11T16:13:56.031Z,95850.09
2023-02-11T16:16:36.297Z,95858.44
2023-02-11T16:19:27.048Z,95859.22
2023-02-11T16:22:10.089Z,95858.28
2023-02-11T16:25:06.062Z,95869.16
2023-02-11T16:27:58.096Z,95866.47
2023-02-11T16:30:38.182Z,95853.66
2023-02-11T16:33:25.034Z,95862.97
2023-02-11T16:36:02.108Z,95863.69
2023-02-11T16:38:49.051Z,95869.53
2023-02-11T16:41:22.180Z,95872.16
2023-02-11T16:44:09.051Z,95867.94
2023-02-11T16:46:43.170Z,95872.09
2023-02-11T16:49:36.097Z,95874.41
2023-02-11T16:52:14.154Z,95870.13
2023-02-11T16:55:01.472Z,95870.94
2023-02-11T16:57:35.177Z,95865.81
2023-02-11T17:00:24.064Z,95876.53
2023-02-11T17:03:04.046Z,95876.44
2023-02-11T17:06:00.368Z,95883.72
2023-02-11T17:08:54.056Z,95886.13
2023-02-11T17:11:41.041Z,95886.94
2023-02-11T17:14:14.211Z,95887.72
2023-02-11T17:17:01.062Z,95876.81
2023-02-11T17:19:41.085Z,95889.38
2023-02-11T17:22:35.054Z,95882.63
2023-02-11T17:25:22.052Z,95879.41
2023-02-11T17:28:02.112Z,95878.53
2023-02-11T17:30:50.091Z,95881.84
2023-02-11T17:33:23.183Z,95886.00
2023-02-11T17:36:15.086Z,95883.44
2023-02-11T17:38:55.076Z,95886.00
2023-02-11T17:41:44.082Z,95886.72
2023-02-11T17:44:25.065Z,95880.91
2023-02-11T17:47:19.058Z,95877.56
2023-02-11T17:50:13.059Z,95878.47
2023-02-11T17:53:00.103Z,95881.09
2023-02-11T17:55:33.193Z,95878.66
2023-02-11T17:58:20.131Z,95867.88
2023-02-11T18:00:53.306Z,95875.47
2023-02-11T18:03:40.060Z,95876.34
2023-02-11T18:06:14.218Z,95875.53
2023-02-11T18:09:04.213Z,95875.53
2023-02-11T18:11:47.101Z,95886.44
2023-02-11T18:14:34.095Z,95887.16
2023-02-11T18:17:14.063Z,95886.44
2023-02-11T18:20:04.080Z,95867.22
2023-02-11T18:22:40.174Z,95873.13
2023-02-11T18:25:27.095Z,95890.72
2023-02-11T18:28:07.132Z,95876.53
2023-02-11T18:30:54.104Z,95868.09
2023-02-11T18:33:28.237Z,95875.53
2023-02-11T18:36:21.082Z,95871.34
2023-02-11T18:39:01.080Z,95878.16
2023-02-11T18:41:50.095Z,95893.22
2023-02-11T18:44:24.754Z,95879.81
2023-02-11T18:47:11.092Z,95877.25
2023-02-11T18:49:44.192Z,95878.13
2023-02-11T18:52:31.119Z,95883.06
2023-02-11T18:55:04.270Z,95882.28
2023-02-11T18:57:51.144Z,95890.59
2023-02-11T19:00:28.266Z,95898.97
2023-02-11T19:03:15.092Z,95888.09
2023-02-11T19:06:01.089Z,95892.44
2023-02-11T19:08:57.490Z,95895.81
2023-02-11T19:11:54.155Z,95889.94
2023-02-11T19:14:42.102Z,95900.09
2023-02-11T19:17:15.296Z,95890.19
2023-02-11T19:20:02.237Z,95885.34
2023-02-11T19:22:35.184Z,95884.66
2023-02-11T19:25:22.113Z,95872.22
2023-02-11T19:27:55.194Z,95879.69
2023-02-11T19:30:43.203Z,95869.56
2023-02-11T19:33:17.271Z,95875.34
2023-02-11T19:36:10.366Z,95871.88
2023-02-11T19:38:45.260Z,95875.03
2023-02-11T19:41:32.093Z,95869.00
2023-02-11T19:44:05.220Z,95880.63
2023-02-11T19:47:00.242Z,95865.66
2023-02-11T19:49:47.138Z,95876.44
2023-02-11T19:52:20.548Z,95877.19
2023-02-11T19:55:07.202Z,95873.03
2023-02-11T19:57:47.310Z,95880.56
2023-02-11T20:01:01.293Z,95886.31
2023-02-11T20:03:49.143Z,95894.69
2023-02-11T20:06:26.283Z,95896.34
2023-02-11T20:09:16.157Z,95889.63
2023-02-11T20:11:57.173Z,95880.44
2023-02-11T20:14:51.166Z,95886.19
2023-02-11T20:17:38.122Z,95886.25
2023-02-11T20:20:12.939Z,95883.81
2023-02-11T20:23:00.127Z,95886.38
2023-02-11T20:25:40.093Z,95882.28
2023-02-11T20:28:27.129Z,95891.41
2023-02-11T20:31:04.308Z,95886.44
2023-02-11T20:33:53.149Z,95892.31
2023-02-11T20:36:38.132Z,95881.47
2023-02-11T20:39:28.137Z,95879.81
2023-02-11T20:42:08.137Z,95884.78
2023-02-11T20:45:02.133Z,95894.03
2023-02-11T20:47:56.108Z,95890.66
2023-02-11T20:50:43.174Z,95891.53
2023-02-11T20:53:16.258Z,95882.31
2023-02-11T20:56:03.196Z,95881.53
2023-02-11T20:58:36.247Z,95894.94
2023-02-11T21:01:33.202Z,95889.94
2023-02-11T21:04:19.142Z,95889.13
2023-02-11T21:07:08.129Z,95892.44
2023-02-11T21:09:41.214Z,95891.63
2023-02-11T21:12:28.109Z,95889.13
2023-02-11T21:15:04.959Z,95891.69
2023-02-11T21:17:52.153Z,95900.97
2023-02-11T21:20:32.196Z,95892.56
2023-02-11T21:23:19.138Z,95898.47
2023-02-11T21:25:59.176Z,95894.28
2023-02-11T21:28:46.232Z,95905.06
2023-02-11T21:31:32.464Z,95892.50
2023-02-11T21:34:19.143Z,95899.91
2023-02-11T21:36:52.422Z,95892.38
2023-02-11T21:39:39.119Z,95895.06
2023-02-11T21:42:19.141Z,95894.31
2023-02-11T21:45:13.199Z,95886.94
2023-02-11T21:48:07.149Z,95900.28
2023-02-11T21:51:01.159Z,95911.25
2023-02-11T21:53:55.193Z,95907.13
2023-02-11T21:56:43.184Z,95905.53
2023-02-11T21:59:18.272Z,95918.19
2023-02-11T22:02:05.238Z,95909.09
2023-02-11T22:04:38.329Z,95919.28
2023-02-11T22:07:27.157Z,95915.19
2023-02-11T22:10:00.280Z,95920.25
2023-02-11T22:12:47.166Z,95920.31
2023-02-11T22:15:27.221Z,95918.66
2023-02-11T22:18:21.125Z,95916.31
2023-02-11T22:21:11.203Z,95925.78
2023-02-11T22:23:45.277Z,95929.25
2023-02-11T22:26:34.164Z,95924.53
2023-02-11T22:29:07.244Z,95925.75
2023-02-11T22:31:54.204Z,95936.22
2023-02-11T22:34:27.281Z,95939.38
2023-02-11T22:37:09.136Z,95934.06
2023-02-11T22:39:56.151Z,95939.38
2023-02-11T22:42:50.147Z,95933.84
2023-02-11T22:45:44.249Z,95938.72
2023-02-11T22:48:24.277Z,95940.13
2023-02-11T22:51:04.135Z,95938.69
2023-02-11T22:53:44.147Z,95945.25
2023-02-11T22:56:39.217Z,95951.53
2023-02-11T22:59:26.177Z,95946.97
2023-02-11T23:01:59.407Z,95946.38
2023-02-11T23:04:48.359Z,95943.81
2023-02-11T23:07:30.181Z,95937.19
2023-02-11T23:10:17.157Z,95930.03
2023-02-11T23:12:57.169Z,95931.88
2023-02-11T23:15:56.535Z,95941.13
2023-02-11T23:18:51.162Z,95941.97
2023-02-11T23:21:47.160Z,95937.09
2023-02-11T23:24:34.180Z,95939.59
2023-02-11T23:27:07.283Z,95947.22
2023-02-11T23:29:54.151Z,95941.34
2023-02-11T23:32:27.352Z,95943.72
2023-02-11T23:35:14.158Z,95942.25
2023-02-11T23:37:47.288Z,95942.47
2023-02-11T23:40:34.160Z,95951.00
2023-02-11T23:43:07.251Z,95942.69
2023-02-11T23:46:01.230Z,95941.97
2023-02-11T23:48:55.206Z,95946.25
2023-02-11T23:51:42.189Z,95948.72
2023-02-11T23:54:26.184Z,95956.44
2023-02-11T23:57:20.191Z,95944.66
